createdAt,value
2023-01-30T00:00:00.850Z,10.65
2023-01-30T00:00:23.498Z,10.69
2023-01-30T00:00:45.156Z,10.71
2023-01-30T00:01:12.889Z,10.76
2023-01-30T00:01:34.988Z,10.80
2023-01-30T00:01:58.120Z,10.85
2023-01-30T00:02:19.801Z,10.89
2023-01-30T00:02:41.411Z,10.88
2023-01-30T00:03:03.178Z,10.92
2023-01-30T00:03:25.415Z,10.93
2023-01-30T00:03:49.867Z,10.97
2023-01-30T00:04:12.553Z,10.99
2023-01-30T00:04:34.525Z,11.04
2023-01-30T00:04:56.187Z,11.06
2023-01-30T00:05:17.989Z,11.04
2023-01-30T00:05:40.970Z,11.03
2023-01-30T00:06:02.686Z,10.98
2023-01-30T00:06:25.184Z,10.93
2023-01-30T00:06:46.827Z,10.93
2023-01-30T00:07:08.599Z,10.82
2023-01-30T00:07:31.249Z,10.82
2023-01-30T00:07:52.853Z,10.88
2023-01-30T00:08:14.644Z,10.83
2023-01-30T00:08:36.544Z,10.92
2023-01-30T00:08:59.628Z,10.96
2023-01-30T00:09:21.609Z,11.03
2023-01-30T00:09:43.317Z,11.04
2023-01-30T00:10:05.871Z,11.06
2023-01-30T00:10:28.784Z,11.03
2023-01-30T00:10:50.665Z,11.04
2023-01-30T00:11:14.874Z,11.06
2023-01-30T00:11:37.814Z,11.09
2023-01-30T00:11:59.506Z,11.05
2023-01-30T00:12:21.354Z,11.07
2023-01-30T00:12:43.171Z,11.03
2023-01-30T00:13:05.050Z,11.06
2023-01-30T00:13:29.849Z,10.98
2023-01-30T00:13:51.766Z,10.98
2023-01-30T00:14:13.676Z,11.03
2023-01-30T00:14:36.551Z,11.04
2023-01-30T00:14:58.437Z,11.00
2023-01-30T00:15:20.286Z,10.97
2023-01-30T00:15:42.538Z,10.98
2023-01-30T00:16:05.190Z,11.03
2023-01-30T00:16:28.341Z,11.00
2023-01-30T00:16:50.011Z,10.89
2023-01-30T00:17:11.648Z,10.81
2023-01-30T00:17:33.415Z,10.83
2023-01-30T00:17:56.307Z,10.86
2023-01-30T00:18:18.224Z,10.89
2023-01-30T00:18:41.658Z,10.96
2023-01-30T00:19:05.918Z,10.97
2023-01-30T00:19:27.666Z,11.00
2023-01-30T00:19:49.574Z,11.03
2023-01-30T00:20:14.792Z,10.97
2023-01-30T00:20:38.842Z,10.91
2023-01-30T00:21:03.237Z,10.87
2023-01-30T00:21:24.876Z,10.77
2023-01-30T00:21:46.505Z,10.80
2023-01-30T00:22:09.380Z,10.78
2023-01-30T00:22:31.197Z,10.77
2023-01-30T00:23:00.804Z,10.85
2023-01-30T00:23:23.251Z,10.87
2023-01-30T00:23:46.405Z,10.84
2023-01-30T00:24:08.447Z,10.85
2023-01-30T00:24:30.319Z,10.92
2023-01-30T00:24:52.403Z,10.77
2023-01-30T00:25:14.429Z,10.80
2023-01-30T00:25:37.198Z,10.79
2023-01-30T00:25:59.516Z,10.90
2023-01-30T00:26:21.402Z,10.97
2023-01-30T00:26:43.148Z,11.03
2023-01-30T00:27:06.195Z,10.93
2023-01-30T00:27:28.006Z,10.86
2023-01-30T00:27:51.125Z,10.86
2023-01-30T00:28:12.755Z,10.81
2023-01-30T00:28:34.714Z,10.74
2023-01-30T00:28:57.977Z,10.74
2023-01-30T00:29:20.034Z,10.79
2023-01-30T00:29:42.336Z,10.86
2023-01-30T00:30:07.248Z,10.92
2023-01-30T00:30:30.056Z,10.99
2023-01-30T00:30:55.519Z,10.94
2023-01-30T00:31:18.542Z,11.04
2023-01-30T00:31:40.482Z,11.10
2023-01-30T00:32:02.338Z,11.14
2023-01-30T00:32:26.467Z,11.21
2023-01-30T00:32:48.243Z,11.26
2023-01-30T00:33:10.797Z,11.31
2023-01-30T00:33:32.463Z,11.30
2023-01-30T00:33:55.291Z,11.26
2023-01-30T00:34:20.309Z,11.29
2023-01-30T00:34:41.871Z,11.28
2023-01-30T00:35:04.179Z,11.31
2023-01-30T00:35:28.627Z,11.30
2023-01-30T00:35:52.516Z,11.35
2023-01-30T00:36:14.440Z,11.38
2023-01-30T00:36:36.192Z,11.41
2023-01-30T00:37:08.203Z,11.41
2023-01-30T00:37:30.348Z,11.47
2023-01-30T00:37:52.538Z,11.45
2023-01-30T00:38:15.185Z,11.48
2023-01-30T00:38:38.343Z,11.51
2023-01-30T00:39:02.280Z,11.51
2023-01-30T00:39:24.003Z,11.55
2023-01-30T00:39:45.888Z,11.56
2023-01-30T00:40:10.531Z,11.55
2023-01-30T00:40:33.004Z,11.55
2023-01-30T00:40:54.848Z,11.59
2023-01-30T00:41:19.017Z,11.63
2023-01-30T00:41:59.346Z,11.50
2023-01-30T00:42:39.901Z,11.48
2023-01-30T00:43:20.222Z,11.47
2023-01-30T00:44:00.338Z,11.47
2023-01-30T00:44:40.636Z,11.40
2023-01-30T00:45:22.208Z,11.36
2023-01-30T00:46:02.480Z,11.22
2023-01-30T00:46:48.090Z,11.12
2023-01-30T00:47:11.380Z,11.11
2023-01-30T00:47:33.253Z,11.17
2023-01-30T00:47:55.201Z,11.16
2023-01-30T00:48:16.980Z,11.08
2023-01-30T00:48:38.668Z,10.96
2023-01-30T00:49:01.524Z,10.80
2023-01-30T00:49:24.586Z,10.69
2023-01-30T00:49:46.392Z,10.75
2023-01-30T00:50:10.619Z,10.82
2023-01-30T00:50:42.516Z,10.83
2023-01-30T00:51:06.957Z,10.98
2023-01-30T00:51:28.684Z,11.02
2023-01-30T00:51:51.817Z,11.11
2023-01-30T00:52:13.496Z,11.16
2023-01-30T00:52:35.227Z,11.18
2023-01-30T00:52:56.902Z,11.27
2023-01-30T00:53:19.073Z,11.30
2023-01-30T00:53:42.256Z,11.23
2023-01-30T00:54:04.458Z,11.29
2023-01-30T00:54:26.609Z,11.25
2023-01-30T00:54:48.275Z,11.30
2023-01-30T00:55:11.168Z,11.27
2023-01-30T00:55:33.032Z,11.22
2023-01-30T00:55:55.473Z,11.04
2023-01-30T00:56:17.189Z,11.03
2023-01-30T00:56:40.166Z,11.03
2023-01-30T00:57:02.028Z,11.08
2023-01-30T00:57:23.701Z,11.15
2023-01-30T00:57:45.625Z,11.10
2023-01-30T00:58:09.184Z,11.15
2023-01-30T00:58:30.827Z,11.21
2023-01-30T00:58:52.479Z,11.25
2023-01-30T00:59:14.125Z,11.30
2023-01-30T00:59:36.690Z,11.31
2023-01-30T00:59:58.874Z,11.35
2023-01-30T01:00:20.933Z,11.37
2023-01-30T01:00:42.673Z,11.39
2023-01-30T01:01:04.804Z,11.39
2023-01-30T01:01:27.658Z,11.34
2023-01-30T01:01:49.695Z,11.25
2023-01-30T01:02:11.652Z,11.22
2023-01-30T01:02:34.613Z,11.26
2023-01-30T01:02:56.369Z,11.27
2023-01-30T01:03:19.720Z,11.30
2023-01-30T01:03:41.867Z,11.37
2023-01-30T01:04:04.201Z,11.40
2023-01-30T01:04:27.516Z,11.41
2023-01-30T01:04:50.480Z,11.44
2023-01-30T01:05:13.165Z,11.46
2023-01-30T01:05:35.404Z,11.48
2023-01-30T01:05:57.243Z,11.48
2023-01-30T01:06:20.287Z,11.50
2023-01-30T01:06:42.094Z,11.51
2023-01-30T01:07:03.717Z,11.53
2023-01-30T01:07:25.381Z,11.30
2023-01-30T01:07:48.477Z,11.09
2023-01-30T01:08:10.689Z,11.14
2023-01-30T01:08:32.492Z,11.14
2023-01-30T01:08:54.247Z,11.14
2023-01-30T01:09:17.236Z,11.15
2023-01-30T01:09:39.101Z,11.02
2023-01-30T01:10:00.872Z,10.96
2023-01-30T01:10:22.898Z,10.95
2023-01-30T01:10:45.008Z,10.94
2023-01-30T01:11:08.039Z,10.97
2023-01-30T01:11:29.866Z,10.99
2023-01-30T01:11:51.517Z,11.06
2023-01-30T01:12:13.302Z,11.14
2023-01-30T01:12:36.427Z,11.11
2023-01-30T01:12:58.510Z,11.12
2023-01-30T01:13:20.256Z,11.14
2023-01-30T01:13:42.253Z,11.19
2023-01-30T01:14:08.371Z,11.24
2023-01-30T01:14:30.094Z,11.21
2023-01-30T01:14:52.101Z,11.23
2023-01-30T01:15:14.633Z,11.27
2023-01-30T01:15:36.540Z,11.27
2023-01-30T01:15:59.470Z,11.35
2023-01-30T01:16:21.673Z,11.39
2023-01-30T01:16:43.933Z,11.42
2023-01-30T01:17:05.930Z,11.41
2023-01-30T01:17:27.761Z,11.35
2023-01-30T01:17:51.353Z,11.37
2023-01-30T01:18:13.124Z,11.34
2023-01-30T01:18:34.847Z,11.42
2023-01-30T01:18:56.638Z,11.45
2023-01-30T01:19:19.678Z,11.49
2023-01-30T01:19:42.877Z,11.51
2023-01-30T01:20:05.802Z,11.36
2023-01-30T01:20:27.923Z,11.21
2023-01-30T01:20:49.839Z,11.18
2023-01-30T01:21:13.195Z,11.04
2023-01-30T01:21:34.877Z,11.09
2023-01-30T01:21:56.546Z,11.12
2023-01-30T01:22:18.285Z,11.10
2023-01-30T01:22:41.909Z,11.11
2023-01-30T01:23:03.701Z,11.19
2023-01-30T01:23:25.512Z,11.24
2023-01-30T01:23:51.345Z,11.29
2023-01-30T01:24:15.389Z,11.34
2023-01-30T01:24:37.196Z,11.41
2023-01-30T01:24:59.041Z,11.33
2023-01-30T01:25:22.036Z,11.15
2023-01-30T01:25:43.734Z,11.23
2023-01-30T01:26:05.848Z,11.27
2023-01-30T01:26:30.410Z,11.37
2023-01-30T01:26:52.163Z,11.39
2023-01-30T01:27:13.826Z,11.37
2023-01-30T01:27:35.573Z,11.35
2023-01-30T01:27:58.244Z,11.29
2023-01-30T01:28:22.290Z,11.35
2023-01-30T01:28:44.013Z,11.41
2023-01-30T01:29:05.845Z,11.43
2023-01-30T01:29:28.514Z,11.48
2023-01-30T01:29:52.932Z,11.55
2023-01-30T01:30:14.981Z,11.56
2023-01-30T01:30:38.510Z,11.57
2023-01-30T01:31:47.732Z,11.66
2023-01-30T01:32:10.773Z,11.67
2023-01-30T01:32:32.662Z,11.66
2023-01-30T01:32:55.296Z,11.66
2023-01-30T01:33:16.965Z,11.60
2023-01-30T01:33:38.569Z,11.61
2023-01-30T01:34:00.204Z,11.59
2023-01-30T01:34:21.792Z,11.67
2023-01-30T01:34:45.737Z,11.69
2023-01-30T01:35:08.225Z,11.73
2023-01-30T01:35:29.808Z,11.76
2023-01-30T01:35:51.422Z,11.74
2023-01-30T01:36:20.026Z,11.83
2023-01-30T01:36:54.392Z,11.74
2023-01-30T01:37:16.479Z,11.77
2023-01-30T01:37:38.437Z,11.78
2023-01-30T01:38:00.120Z,11.74
2023-01-30T01:38:22.923Z,11.69
2023-01-30T01:38:46.327Z,11.62
2023-01-30T01:39:08.319Z,11.52
2023-01-30T01:39:51.290Z,11.43
2023-01-30T01:40:36.253Z,11.37
2023-01-30T01:41:06.429Z,11.24
2023-01-30T01:41:30.309Z,11.37
2023-01-30T01:41:52.120Z,11.41
2023-01-30T01:42:15.776Z,11.37
2023-01-30T01:42:39.101Z,11.41
2023-01-30T01:43:01.240Z,11.48
2023-01-30T01:43:27.156Z,11.52
2023-01-30T01:44:04.457Z,11.49
2023-01-30T01:44:49.894Z,11.50
2023-01-30T01:45:19.808Z,11.40
2023-01-30T01:45:43.649Z,11.42
2023-01-30T01:46:15.387Z,11.31
2023-01-30T01:46:43.561Z,11.39
2023-01-30T01:47:08.729Z,11.27
2023-01-30T01:47:34.796Z,11.16
2023-01-30T01:48:02.601Z,11.14
2023-01-30T01:48:31.250Z,11.24
2023-01-30T01:48:59.416Z,11.22
2023-01-30T01:49:26.449Z,11.26
2023-01-30T01:49:52.217Z,11.13
2023-01-30T01:50:22.555Z,11.20
2023-01-30T01:50:50.275Z,11.25
2023-01-30T01:51:17.409Z,11.36
2023-01-30T01:51:43.476Z,11.32
2023-01-30T01:52:09.541Z,11.38
2023-01-30T01:52:32.773Z,11.44
2023-01-30T01:52:58.249Z,11.43
2023-01-30T01:53:26.790Z,11.38
2023-01-30T01:53:52.850Z,11.44
2023-01-30T01:54:18.512Z,11.44
2023-01-30T01:54:45.169Z,11.46
2023-01-30T01:55:07.745Z,11.49
2023-01-30T01:55:30.421Z,11.53
2023-01-30T01:55:55.749Z,11.61
2023-01-30T01:56:19.893Z,11.68
2023-01-30T01:56:47.100Z,11.72
2023-01-30T01:57:16.207Z,11.80
2023-01-30T01:57:42.571Z,11.80
2023-01-30T01:58:10.296Z,11.75
2023-01-30T01:58:37.269Z,11.80
2023-01-30T01:59:04.562Z,11.84
2023-01-30T01:59:32.920Z,11.64
2023-01-30T02:00:02.483Z,11.45
2023-01-30T02:00:34.411Z,11.43
2023-01-30T02:00:59.161Z,11.47
2023-01-30T02:01:22.133Z,11.34
2023-01-30T02:01:44.468Z,11.46
2023-01-30T02:02:09.199Z,11.40
2023-01-30T02:02:30.965Z,11.38
2023-01-30T02:02:58.014Z,11.46
2023-01-30T02:03:24.022Z,11.41
2023-01-30T02:03:50.719Z,11.44
2023-01-30T02:04:13.426Z,11.48
2023-01-30T02:05:01.821Z,11.51
2023-01-30T02:05:28.546Z,11.38
2023-01-30T02:05:57.766Z,11.39
2023-01-30T02:06:22.494Z,11.43
2023-01-30T02:06:44.177Z,11.43
2023-01-30T02:07:06.215Z,11.45
2023-01-30T02:07:33.390Z,11.42
2023-01-30T02:08:01.733Z,11.46
2023-01-30T02:08:27.317Z,11.38
2023-01-30T02:08:53.777Z,11.42
2023-01-30T02:09:16.421Z,11.45
2023-01-30T02:09:38.595Z,11.45
2023-01-30T02:10:01.117Z,11.50
2023-01-30T02:10:25.515Z,11.49
2023-01-30T02:10:54.052Z,11.51
2023-01-30T02:11:25.612Z,11.42
2023-01-30T02:11:54.522Z,11.30
2023-01-30T02:12:16.798Z,11.18
2023-01-30T02:12:39.997Z,11.25
2023-01-30T02:13:02.564Z,11.24
2023-01-30T02:13:24.927Z,11.29
2023-01-30T02:13:48.228Z,11.28
2023-01-30T02:14:11.335Z,11.24
2023-01-30T02:14:35.263Z,11.27
2023-01-30T02:14:59.069Z,11.33
2023-01-30T02:15:20.759Z,11.25
2023-01-30T02:15:42.720Z,11.23
2023-01-30T02:16:07.611Z,11.29
2023-01-30T02:16:29.329Z,11.23
2023-01-30T02:16:51.016Z,11.24
2023-01-30T02:17:12.767Z,11.34
2023-01-30T02:17:34.446Z,11.13
2023-01-30T02:17:57.958Z,11.19
2023-01-30T02:18:20.010Z,11.34
2023-01-30T02:18:44.659Z,11.29
2023-01-30T02:19:16.197Z,11.34
2023-01-30T02:19:50.620Z,11.27
2023-01-30T02:20:21.467Z,11.26
2023-01-30T02:21:06.380Z,11.40
2023-01-30T02:21:56.097Z,11.29
2023-01-30T02:22:33.117Z,11.40
2023-01-30T02:23:39.175Z,11.14
2023-01-30T02:24:27.367Z,11.16
2023-01-30T02:25:23.328Z,11.30
2023-01-30T02:26:19.260Z,11.34
2023-01-30T02:27:21.769Z,11.04
2023-01-30T02:28:04.198Z,10.92
2023-01-30T02:29:01.522Z,10.79
2023-01-30T02:29:55.714Z,10.85
2023-01-30T02:31:01.925Z,11.03
2023-01-30T02:31:32.944Z,11.13
2023-01-30T02:32:03.904Z,11.19
2023-01-30T02:32:35.855Z,11.00
2023-01-30T02:33:08.725Z,11.09
2023-01-30T02:33:41.169Z,11.15
2023-01-30T02:34:27.703Z,11.12
2023-01-30T02:34:57.529Z,11.24
2023-01-30T02:35:28.931Z,11.31
2023-01-30T02:36:05.181Z,11.37
2023-01-30T02:36:32.646Z,11.46
2023-01-30T02:37:02.659Z,11.52
2023-01-30T02:37:37.160Z,11.53
2023-01-30T02:38:13.834Z,11.43
2023-01-30T02:38:42.354Z,11.09
2023-01-30T02:39:09.419Z,11.11
2023-01-30T02:39:41.993Z,11.12
2023-01-30T02:40:16.710Z,11.04
2023-01-30T02:40:44.801Z,11.17
2023-01-30T02:41:20.130Z,11.23
2023-01-30T02:41:53.283Z,11.31
2023-01-30T02:42:26.842Z,11.30
2023-01-30T02:42:56.703Z,11.22
2023-01-30T02:43:29.455Z,11.25
2023-01-30T02:43:59.816Z,11.29
2023-01-30T02:44:30.097Z,11.35
2023-01-30T02:44:59.988Z,11.36
2023-01-30T02:45:27.505Z,11.44
2023-01-30T02:45:58.039Z,11.52
2023-01-30T02:46:25.484Z,11.50
2023-01-30T02:46:58.617Z,11.57
2023-01-30T02:47:31.035Z,11.53
2023-01-30T02:48:00.318Z,11.41
2023-01-30T02:48:25.489Z,11.50
2023-01-30T02:48:52.279Z,11.48
2023-01-30T02:49:20.419Z,11.51
2023-01-30T02:49:48.192Z,11.53
2023-01-30T02:50:18.387Z,11.28
2023-01-30T02:50:44.713Z,11.37
2023-01-30T02:51:09.908Z,11.38
2023-01-30T02:51:35.192Z,11.05
2023-01-30T02:52:00.696Z,11.06
2023-01-30T02:52:24.477Z,11.16
2023-01-30T02:52:48.718Z,11.19
2023-01-30T02:53:12.570Z,11.23
2023-01-30T02:53:36.673Z,11.31
2023-01-30T02:54:00.431Z,11.27
2023-01-30T02:54:23.161Z,11.25
2023-01-30T02:54:44.844Z,11.21
2023-01-30T02:55:08.925Z,11.29
2023-01-30T02:55:31.445Z,11.22
2023-01-30T02:55:54.073Z,11.20
2023-01-30T02:56:15.999Z,11.17
2023-01-30T02:56:46.880Z,11.12
2023-01-30T02:57:18.794Z,10.93
2023-01-30T02:57:44.162Z,11.02
2023-01-30T02:58:09.454Z,10.98
2023-01-30T02:58:36.525Z,11.00
2023-01-30T02:59:08.287Z,10.82
2023-01-30T02:59:35.807Z,10.83
2023-01-30T03:00:02.383Z,10.92
2023-01-30T03:00:35.226Z,10.96
2023-01-30T03:01:40.135Z,11.05
2023-01-30T03:02:29.895Z,11.14
2023-01-30T03:03:09.071Z,11.30
2023-01-30T03:03:51.737Z,11.31
2023-01-30T03:04:31.917Z,11.35
2023-01-30T03:05:19.708Z,11.21
2023-01-30T03:06:04.983Z,11.32
2023-01-30T03:06:37.689Z,11.19
2023-01-30T03:07:13.362Z,10.98
2023-01-30T03:07:44.430Z,11.10
2023-01-30T03:08:17.963Z,11.10
2023-01-30T03:08:50.414Z,11.21
2023-01-30T03:09:18.555Z,11.12
2023-01-30T03:09:47.299Z,11.15
2023-01-30T03:10:19.732Z,11.07
2023-01-30T03:10:55.860Z,11.19
2023-01-30T03:11:17.971Z,11.30
2023-01-30T03:11:48.479Z,11.28
2023-01-30T03:12:18.799Z,11.22
2023-01-30T03:12:48.883Z,11.26
2023-01-30T03:13:19.550Z,11.31
2023-01-30T03:13:50.474Z,11.35
2023-01-30T03:14:20.033Z,11.46
2023-01-30T03:14:47.656Z,11.51
2023-01-30T03:15:17.202Z,11.47
2023-01-30T03:15:43.016Z,11.40
2023-01-30T03:16:12.472Z,11.29
2023-01-30T03:16:41.244Z,10.97
2023-01-30T03:17:06.445Z,11.02
2023-01-30T03:17:29.415Z,11.09
2023-01-30T03:17:52.192Z,11.08
2023-01-30T03:18:18.956Z,11.22
2023-01-30T03:18:41.741Z,11.27
2023-01-30T03:19:05.957Z,11.38
2023-01-30T03:19:29.805Z,11.37
2023-01-30T03:19:55.240Z,11.40
2023-01-30T03:20:20.366Z,11.31
2023-01-30T03:20:43.149Z,11.37
2023-01-30T03:21:06.306Z,11.44
2023-01-30T03:21:29.402Z,11.22
2023-01-30T03:21:52.703Z,11.26
2023-01-30T03:22:15.986Z,11.31
2023-01-30T03:22:39.156Z,11.25
2023-01-30T03:23:02.956Z,11.25
2023-01-30T03:23:26.976Z,11.30
2023-01-30T03:23:49.025Z,11.21
2023-01-30T03:24:11.200Z,11.29
2023-01-30T03:24:33.838Z,11.33
2023-01-30T03:24:55.630Z,11.37
2023-01-30T03:25:20.877Z,11.44
2023-01-30T03:25:47.338Z,11.50
2023-01-30T03:26:17.253Z,11.50
2023-01-30T03:26:46.743Z,11.52
2023-01-30T03:27:12.709Z,11.55
2023-01-30T03:27:37.218Z,11.56
2023-01-30T03:28:04.148Z,11.46
2023-01-30T03:28:28.169Z,11.27
2023-01-30T03:28:51.767Z,11.31
2023-01-30T03:29:14.972Z,11.35
2023-01-30T03:29:37.529Z,11.37
2023-01-30T03:30:02.298Z,11.41
2023-01-30T03:30:26.461Z,11.47
2023-01-30T03:30:56.399Z,11.51
2023-01-30T03:31:18.644Z,11.56
2023-01-30T03:31:42.948Z,11.60
2023-01-30T03:32:05.363Z,11.66
2023-01-30T03:32:27.276Z,11.69
2023-01-30T03:32:49.854Z,11.70
2023-01-30T03:33:13.600Z,11.63
2023-01-30T03:33:38.213Z,11.58
2023-01-30T03:34:02.512Z,11.52
2023-01-30T03:34:26.159Z,11.55
2023-01-30T03:34:49.139Z,11.59
2023-01-30T03:35:10.828Z,11.65
2023-01-30T03:35:33.481Z,11.70
2023-01-30T03:35:55.647Z,11.57
2023-01-30T03:36:19.961Z,11.59
2023-01-30T03:36:43.489Z,11.58
2023-01-30T03:37:06.162Z,11.49
2023-01-30T03:37:30.936Z,11.56
2023-01-30T03:37:53.883Z,11.45
2023-01-30T03:38:15.622Z,11.49
2023-01-30T03:38:37.415Z,11.52
2023-01-30T03:38:59.510Z,11.56
2023-01-30T03:39:24.451Z,11.63
2023-01-30T03:39:46.841Z,11.73
2023-01-30T03:40:12.275Z,11.75
2023-01-30T03:40:37.744Z,11.81
2023-01-30T03:41:00.049Z,11.83
2023-01-30T03:41:24.517Z,11.81
2023-01-30T03:41:46.701Z,11.85
2023-01-30T03:42:13.599Z,11.87
2023-01-30T03:42:36.882Z,11.80
2023-01-30T03:42:58.934Z,11.73
2023-01-30T03:43:21.684Z,11.74
2023-01-30T03:43:45.060Z,11.65
2023-01-30T03:44:07.263Z,11.64
2023-01-30T03:44:28.906Z,11.59
2023-01-30T03:44:51.159Z,11.43
2023-01-30T03:45:16.632Z,11.48
2023-01-30T03:45:39.500Z,11.48
2023-01-30T03:46:02.285Z,11.48
2023-01-30T03:46:24.441Z,11.56
2023-01-30T03:46:49.373Z,11.63
2023-01-30T03:47:11.040Z,11.68
2023-01-30T03:47:32.924Z,11.71
2023-01-30T03:47:55.290Z,11.77
2023-01-30T03:48:16.943Z,11.83
2023-01-30T03:48:39.619Z,11.75
2023-01-30T03:49:01.914Z,11.57
2023-01-30T03:49:23.657Z,11.54
2023-01-30T03:49:46.253Z,11.55
2023-01-30T03:50:09.424Z,11.54
2023-01-30T03:50:31.544Z,11.57
2023-01-30T03:50:54.246Z,11.56
2023-01-30T03:51:16.020Z,11.62
2023-01-30T03:51:38.013Z,11.58
2023-01-30T03:51:59.891Z,11.57
2023-01-30T03:52:22.550Z,11.62
2023-01-30T03:52:44.210Z,11.55
2023-01-30T03:53:09.472Z,11.59
2023-01-30T03:53:31.204Z,11.59
2023-01-30T03:53:54.616Z,11.65
2023-01-30T03:54:17.242Z,11.64
2023-01-30T03:54:38.865Z,11.37
2023-01-30T03:55:00.503Z,11.45
2023-01-30T03:55:22.171Z,11.50
2023-01-30T03:55:45.609Z,11.51
2023-01-30T03:56:07.476Z,11.55
2023-01-30T03:56:31.497Z,11.49
2023-01-30T03:56:54.278Z,11.50
2023-01-30T03:57:16.089Z,11.41
2023-01-30T03:57:38.225Z,11.41
2023-01-30T03:57:59.912Z,11.43
2023-01-30T03:58:25.755Z,11.51
2023-01-30T03:58:47.526Z,11.51
2023-01-30T03:59:23.121Z,11.48
2023-01-30T03:59:55.600Z,11.49
2023-01-30T04:00:18.183Z,11.43
2023-01-30T04:00:43.411Z,11.48
2023-01-30T04:01:05.352Z,11.47
2023-01-30T04:01:28.061Z,11.55
2023-01-30T04:01:51.059Z,11.57
2023-01-30T04:02:13.856Z,11.47
2023-01-30T04:02:38.537Z,11.37
2023-01-30T04:03:01.086Z,11.40
2023-01-30T04:03:22.743Z,11.43
2023-01-30T04:03:46.139Z,11.44
2023-01-30T04:04:08.625Z,11.50
2023-01-30T04:04:31.264Z,11.54
2023-01-30T04:04:53.500Z,11.58
2023-01-30T04:05:15.628Z,11.56
2023-01-30T04:05:43.439Z,11.45
2023-01-30T04:06:06.249Z,11.43
2023-01-30T04:06:27.903Z,11.39
2023-01-30T04:06:49.693Z,11.36
2023-01-30T04:07:11.320Z,11.35
2023-01-30T04:07:35.680Z,11.41
2023-01-30T04:07:58.075Z,11.49
2023-01-30T04:08:19.750Z,11.54
2023-01-30T04:08:42.596Z,11.49
2023-01-30T04:09:10.129Z,11.56
2023-01-30T04:09:36.657Z,11.58
2023-01-30T04:09:59.346Z,11.62
2023-01-30T04:10:21.388Z,11.56
2023-01-30T04:10:42.967Z,11.62
2023-01-30T04:11:05.078Z,11.65
2023-01-30T04:11:27.840Z,11.69
2023-01-30T04:11:49.560Z,11.55
2023-01-30T04:12:12.882Z,11.57
2023-01-30T04:12:42.974Z,11.67
2023-01-30T04:13:06.441Z,11.50
2023-01-30T04:13:28.405Z,11.56
2023-01-30T04:13:50.063Z,11.44
2023-01-30T04:14:11.890Z,11.35
2023-01-30T04:14:46.799Z,11.45
2023-01-30T04:15:17.672Z,11.45
2023-01-30T04:16:18.352Z,11.57
2023-01-30T04:17:01.363Z,11.57
2023-01-30T04:17:35.185Z,11.36
2023-01-30T04:18:16.369Z,11.31
2023-01-30T04:18:44.881Z,11.31
2023-01-30T04:19:13.150Z,11.38
2023-01-30T04:19:36.655Z,11.27
2023-01-30T04:19:59.083Z,11.25
2023-01-30T04:20:21.286Z,11.35
2023-01-30T04:20:47.240Z,11.45
2023-01-30T04:21:11.815Z,11.53
2023-01-30T04:21:34.574Z,11.55
2023-01-30T04:21:56.291Z,11.44
2023-01-30T04:22:18.046Z,11.48
2023-01-30T04:22:40.727Z,11.46
2023-01-30T04:23:02.650Z,11.47
2023-01-30T04:23:25.278Z,11.55
2023-01-30T04:23:47.081Z,11.57
2023-01-30T04:24:10.356Z,11.58
2023-01-30T04:24:32.045Z,11.63
2023-01-30T04:24:53.671Z,11.61
2023-01-30T04:25:16.302Z,11.49
2023-01-30T04:25:39.442Z,11.51
2023-01-30T04:26:03.720Z,11.39
2023-01-30T04:26:25.464Z,11.41
2023-01-30T04:26:47.264Z,11.47
2023-01-30T04:27:10.220Z,11.53
2023-01-30T04:27:36.911Z,11.50
2023-01-30T04:28:06.900Z,11.51
2023-01-30T04:28:32.779Z,11.45
2023-01-30T04:28:54.492Z,11.53
2023-01-30T04:29:16.072Z,11.62
2023-01-30T04:29:39.346Z,11.67
2023-01-30T04:30:06.612Z,11.76
2023-01-30T04:30:28.278Z,11.76
2023-01-30T04:31:04.402Z,11.74
2023-01-30T04:31:38.807Z,11.82
2023-01-30T04:32:22.618Z,11.81
2023-01-30T04:32:44.249Z,11.85
2023-01-30T04:33:06.281Z,11.88
2023-01-30T04:33:30.003Z,11.92
2023-01-30T04:33:51.798Z,11.96
2023-01-30T04:34:13.768Z,12.00
2023-01-30T04:34:35.410Z,11.99
2023-01-30T04:34:58.073Z,11.97
2023-01-30T04:35:20.020Z,11.98
2023-01-30T04:35:50.878Z,11.92
2023-01-30T04:36:13.929Z,11.90
2023-01-30T04:36:36.901Z,11.90
2023-01-30T04:36:58.958Z,11.95
2023-01-30T04:37:21.394Z,11.91
2023-01-30T04:37:45.617Z,11.90
2023-01-30T04:38:11.491Z,11.93
2023-01-30T04:38:34.702Z,11.77
2023-01-30T04:38:58.250Z,11.73
2023-01-30T04:39:22.090Z,11.71
2023-01-30T04:39:43.907Z,11.79
2023-01-30T04:40:06.727Z,11.84
2023-01-30T04:40:29.613Z,11.87
2023-01-30T04:40:54.152Z,11.82
2023-01-30T04:41:15.826Z,11.81
2023-01-30T04:41:38.558Z,11.86
2023-01-30T04:42:01.177Z,11.75
2023-01-30T04:42:25.336Z,11.64
2023-01-30T04:43:09.924Z,11.58
2023-01-30T04:43:55.461Z,11.48
2023-01-30T04:44:27.528Z,11.53
2023-01-30T04:45:16.615Z,11.72
2023-01-30T04:45:42.298Z,11.65
2023-01-30T04:46:04.874Z,11.60
2023-01-30T04:46:26.648Z,11.56
2023-01-30T04:46:49.250Z,11.53
2023-01-30T04:47:11.449Z,11.48
2023-01-30T04:47:34.615Z,11.52
2023-01-30T04:47:56.301Z,11.42
2023-01-30T04:48:19.774Z,11.47
2023-01-30T04:48:41.567Z,11.48
2023-01-30T04:49:04.068Z,11.43
2023-01-30T04:49:26.919Z,11.34
2023-01-30T04:49:49.113Z,11.42
2023-01-30T04:50:11.380Z,11.31
2023-01-30T04:50:33.951Z,11.23
2023-01-30T04:50:57.516Z,11.37
2023-01-30T04:51:19.326Z,11.35
2023-01-30T04:51:41.846Z,11.48
2023-01-30T04:52:05.396Z,11.51
2023-01-30T04:52:26.989Z,11.51
2023-01-30T04:52:48.597Z,11.48
2023-01-30T04:53:11.276Z,11.52
2023-01-30T04:53:34.579Z,11.55
2023-01-30T04:53:57.464Z,11.53
2023-01-30T04:54:19.176Z,11.62
2023-01-30T04:54:40.835Z,11.66
2023-01-30T04:55:02.525Z,11.76
2023-01-30T04:55:25.183Z,11.77
2023-01-30T04:55:48.257Z,11.80
2023-01-30T04:56:09.944Z,11.86
2023-01-30T04:56:32.575Z,11.87
2023-01-30T04:56:54.240Z,11.88
2023-01-30T04:57:15.903Z,11.88
2023-01-30T04:57:37.583Z,11.92
2023-01-30T04:58:00.220Z,11.85
2023-01-30T04:58:22.097Z,11.88
2023-01-30T04:58:43.831Z,11.91
2023-01-30T04:59:06.806Z,11.96
2023-01-30T04:59:34.728Z,11.99
2023-01-30T04:59:59.994Z,11.99
2023-01-30T05:00:22.431Z,11.95
2023-01-30T05:00:49.604Z,11.88
2023-01-30T05:01:16.137Z,11.87
2023-01-30T05:01:40.713Z,11.90
2023-01-30T05:02:02.749Z,11.94
2023-01-30T05:02:24.405Z,11.89
2023-01-30T05:02:47.662Z,11.88
2023-01-30T05:03:10.260Z,11.90
2023-01-30T05:03:32.368Z,11.92
2023-01-30T05:03:54.726Z,11.78
2023-01-30T05:04:16.445Z,11.69
2023-01-30T05:04:39.307Z,11.46
2023-01-30T05:05:01.445Z,11.51
2023-01-30T05:05:23.941Z,11.64
2023-01-30T05:05:47.924Z,11.60
2023-01-30T05:06:12.915Z,11.68
2023-01-30T05:06:36.841Z,11.72
2023-01-30T05:06:58.820Z,11.74
2023-01-30T05:07:21.363Z,11.79
2023-01-30T05:07:43.100Z,11.86
2023-01-30T05:08:06.396Z,11.89
2023-01-30T05:08:28.241Z,11.94
2023-01-30T05:08:50.150Z,11.91
2023-01-30T05:09:11.899Z,11.96
2023-01-30T05:09:39.172Z,11.99
2023-01-30T05:10:02.780Z,11.87
2023-01-30T05:10:24.420Z,11.99
2023-01-30T05:10:46.220Z,11.97
2023-01-30T05:11:08.869Z,11.97
2023-01-30T05:11:30.972Z,11.97
2023-01-30T05:11:52.578Z,12.04
2023-01-30T05:12:15.198Z,12.09
2023-01-30T05:12:36.789Z,12.00
2023-01-30T05:13:02.314Z,11.93
2023-01-30T05:13:23.903Z,11.98
2023-01-30T05:13:46.859Z,11.89
2023-01-30T05:14:08.449Z,11.89
2023-01-30T05:14:30.107Z,11.94
2023-01-30T05:14:51.702Z,11.91
2023-01-30T05:15:14.877Z,12.00
2023-01-30T05:15:36.501Z,12.01
2023-01-30T05:15:58.171Z,11.91
2023-01-30T05:16:21.965Z,11.93
2023-01-30T05:16:44.535Z,11.95
2023-01-30T05:17:06.160Z,11.99
2023-01-30T05:17:27.972Z,11.93
2023-01-30T05:17:50.917Z,11.96
2023-01-30T05:18:13.481Z,12.01
2023-01-30T05:18:35.115Z,12.00
2023-01-30T05:18:56.807Z,12.02
2023-01-30T05:19:18.700Z,12.04
2023-01-30T05:19:41.324Z,12.00
2023-01-30T05:20:03.411Z,12.09
2023-01-30T05:20:25.952Z,12.11
2023-01-30T05:20:50.463Z,12.14
2023-01-30T05:21:16.073Z,12.10
2023-01-30T05:21:37.716Z,12.14
2023-01-30T05:22:02.711Z,12.15
2023-01-30T05:22:28.562Z,12.14
2023-01-30T05:22:54.340Z,12.15
2023-01-30T05:23:16.254Z,12.19
2023-01-30T05:23:43.782Z,12.07
2023-01-30T05:24:06.468Z,12.11
2023-01-30T05:24:28.388Z,12.16
2023-01-30T05:24:52.151Z,12.19
2023-01-30T05:25:15.201Z,12.09
2023-01-30T05:25:37.612Z,12.07
2023-01-30T05:26:00.131Z,12.07